createdAt,value
2022-10-28T00:00:19.779Z,15.7
2022-10-28T00:01:36.884Z,15.7
2022-10-28T00:02:53.988Z,15.7
2022-10-28T00:04:11.093Z,15.6
2022-10-28T00:05:28.197Z,15.6
2022-10-28T00:06:45.301Z,15.5
2022-10-28T00:08:02.406Z,15.5
2022-10-28T00:09:18.526Z,15.5
2022-10-28T00:10:35.630Z,15.5
2022-10-28T00:11:52.735Z,15.5
2022-10-28T00:13:09.839Z,15.5
2022-10-28T00:14:26.943Z,15.5
2022-10-28T00:15:44.048Z,15.5
2022-10-28T00:17:01.152Z,15.5
2022-10-28T00:18:18.257Z,15.4
2022-10-28T00:19:35.361Z,15.4
2022-10-28T00:20:52.465Z,15.4
2022-10-28T00:22:09.569Z,15.4
2022-10-28T00:23:26.674Z,15.4
2022-10-28T00:24:43.778Z,15.4
2022-10-28T00:25:59.898Z,15.4
2022-10-28T00:27:17.003Z,15.4
2022-10-28T00:28:34.107Z,15.4
2022-10-28T00:29:51.211Z,15.4
2022-10-28T00:31:08.315Z,15.4
2022-10-28T00:32:25.420Z,15.4
2022-10-28T00:33:42.524Z,15.4
2022-10-28T00:34:59.628Z,15.4
2022-10-28T00:36:16.733Z,15.4
2022-10-28T00:37:33.837Z,15.4
2022-10-28T00:38:50.942Z,15.4
2022-10-28T00:40:08.046Z,15.4
2022-10-28T00:41:25.150Z,15.3
2022-10-28T00:42:41.271Z,15.3
2022-10-28T00:43:58.375Z,15.3
2022-10-28T00:45:15.480Z,15.3
2022-10-28T00:46:32.584Z,15.3
2022-10-28T00:47:49.688Z,15.3
2022-10-28T00:49:06.793Z,15.3
2022-10-28T00:50:23.898Z,15.3
2022-10-28T00:51:41.002Z,15.3
2022-10-28T00:52:58.107Z,15.3
2022-10-28T00:54:15.211Z,15.3
2022-10-28T00:55:32.315Z,15.3
2022-10-28T00:56:49.419Z,15.3
2022-10-28T00:58:06.524Z,15.4
2022-10-28T00:59:22.644Z,15.3
2022-10-28T01:00:39.748Z,15.4
2022-10-28T01:01:56.854Z,15.4
2022-10-28T01:03:13.958Z,15.4
2022-10-28T01:04:31.062Z,15.4
2022-10-28T01:05:48.167Z,15.4
2022-10-28T01:07:05.271Z,15.4
2022-10-28T01:08:22.375Z,15.4
2022-10-28T01:09:39.480Z,15.4
2022-10-28T01:10:56.585Z,15.3
2022-10-28T01:12:13.689Z,15.3
2022-10-28T01:13:30.793Z,15.4
2022-10-28T01:14:47.898Z,15.4
2022-10-28T01:16:04.018Z,15.4
2022-10-28T01:17:21.123Z,15.4
2022-10-28T01:18:38.227Z,15.4
2022-10-28T01:19:55.331Z,15.4
2022-10-28T01:21:12.435Z,15.5
2022-10-28T01:22:29.540Z,15.5
2022-10-28T01:23:46.645Z,15.5
2022-10-28T01:25:03.749Z,15.5
2022-10-28T01:26:20.854Z,15.5
2022-10-28T01:27:37.958Z,15.6
2022-10-28T01:28:55.062Z,15.6
2022-10-28T01:30:12.166Z,15.5
2022-10-28T01:31:29.270Z,15.5
2022-10-28T01:32:45.390Z,15.5
2022-10-28T01:34:02.495Z,15.5
2022-10-28T01:35:19.599Z,15.5
2022-10-28T01:36:36.703Z,15.5
2022-10-28T01:37:53.807Z,15.6
2022-10-28T01:39:10.912Z,15.5
2022-10-28T01:40:28.016Z,15.6
2022-10-28T01:41:45.120Z,15.6
2022-10-28T01:43:02.224Z,15.6
2022-10-28T01:44:19.329Z,15.5
2022-10-28T01:45:36.434Z,15.5
2022-10-28T01:46:53.538Z,15.6
2022-10-28T01:48:10.642Z,15.6
2022-10-28T01:49:26.763Z,15.6
2022-10-28T01:50:43.867Z,15.6
2022-10-28T01:52:00.971Z,15.6
2022-10-28T01:53:18.076Z,15.6
2022-10-28T01:54:35.180Z,15.6
2022-10-28T01:55:52.285Z,15.7
2022-10-28T01:57:09.389Z,15.7
2022-10-28T01:58:26.493Z,15.7
2022-10-28T01:59:43.597Z,15.7
2022-10-28T02:01:00.701Z,15.8
2022-10-28T02:02:17.805Z,15.8
2022-10-28T02:03:34.910Z,15.7
2022-10-28T02:04:52.014Z,15.7
2022-10-28T02:06:08.135Z,15.7
2022-10-28T02:07:25.240Z,15.7
2022-10-28T02:08:42.344Z,15.8
2022-10-28T02:09:59.448Z,15.8
2022-10-28T02:11:16.553Z,15.8
2022-10-28T02:12:33.657Z,15.8
2022-10-28T02:13:50.762Z,15.9
2022-10-28T02:15:07.866Z,15.9
2022-10-28T02:16:24.970Z,15.9
2022-10-28T02:17:42.075Z,15.9
2022-10-28T02:18:59.179Z,15.9
2022-10-28T02:20:16.283Z,15.8
2022-10-28T02:21:33.387Z,15.8
2022-10-28T02:22:49.508Z,15.8
2022-10-28T02:24:06.613Z,15.8
2022-10-28T02:25:23.717Z,15.8
2022-10-28T02:26:40.821Z,15.8
2022-10-28T02:27:57.925Z,15.8
2022-10-28T02:29:15.030Z,15.9
2022-10-28T02:30:32.135Z,15.9
2022-10-28T02:31:49.239Z,15.8
2022-10-28T02:33:06.343Z,15.8
2022-10-28T02:34:23.448Z,15.8
2022-10-28T02:35:40.552Z,15.8
2022-10-28T02:36:57.657Z,15.8
2022-10-28T02:38:14.761Z,15.8
2022-10-28T02:39:30.881Z,15.8
2022-10-28T02:40:47.986Z,15.8
2022-10-28T02:42:05.090Z,15.8
2022-10-28T02:43:22.195Z,15.7
2022-10-28T02:44:39.299Z,15.7
2022-10-28T02:45:56.403Z,15.7
2022-10-28T02:47:13.507Z,15.7
2022-10-28T02:48:30.611Z,15.7
2022-10-28T02:49:47.716Z,15.7
2022-10-28T02:51:04.820Z,15.7
2022-10-28T02:52:21.925Z,15.7
2022-10-28T02:53:39.029Z,15.7
2022-10-28T02:54:56.133Z,15.8
2022-10-28T02:56:12.254Z,15.8
2022-10-28T02:57:29.358Z,15.8
2022-10-28T02:58:46.463Z,15.7
2022-10-28T03:00:03.567Z,15.8
2022-10-28T03:01:20.671Z,15.8
2022-10-28T03:02:37.776Z,15.7
2022-10-28T03:03:54.880Z,15.7
2022-10-28T03:05:11.985Z,15.7
2022-10-28T03:06:29.089Z,15.7
2022-10-28T03:07:46.193Z,15.7
2022-10-28T03:09:03.298Z,15.7
2022-10-28T03:10:20.402Z,15.7
2022-10-28T03:11:37.507Z,15.8
2022-10-28T03:12:53.627Z,15.8
2022-10-28T03:14:10.732Z,15.8
2022-10-28T03:15:27.837Z,15.9
2022-10-28T03:16:44.941Z,15.9
2022-10-28T03:18:02.045Z,15.9
2022-10-28T03:19:19.149Z,15.9
2022-10-28T03:20:36.253Z,15.9
2022-10-28T03:21:53.358Z,16
2022-10-28T03:23:10.463Z,16
2022-10-28T03:24:27.568Z,16
2022-10-28T03:25:44.672Z,16
2022-10-28T03:27:01.777Z,15.9
2022-10-28T03:28:18.881Z,15.8
2022-10-28T03:29:35.001Z,15.9
2022-10-28T03:30:52.105Z,15.9
2022-10-28T03:32:09.209Z,15.9
2022-10-28T03:33:26.314Z,15.9
2022-10-28T03:34:43.418Z,16
2022-10-28T03:36:00.522Z,16
2022-10-28T03:37:16.643Z,15.9
2022-10-28T03:38:33.747Z,15.9
2022-10-28T03:39:50.851Z,15.9
2022-10-28T03:41:07.955Z,15.8
2022-10-28T03:42:25.059Z,15.8
2022-10-28T03:43:42.164Z,15.8
2022-10-28T03:44:59.268Z,15.8
2022-10-28T03:46:16.372Z,15.8
2022-10-28T03:47:33.476Z,15.9
2022-10-28T03:48:50.580Z,15.9
2022-10-28T03:50:07.685Z,15.9
2022-10-28T03:51:24.789Z,15.9
2022-10-28T03:52:41.893Z,15.9
2022-10-28T03:53:58.014Z,15.9
2022-10-28T03:55:15.118Z,15.9
2022-10-28T03:56:32.223Z,15.9
2022-10-28T03:57:49.327Z,15.8
2022-10-28T03:59:06.432Z,15.8
2022-10-28T04:00:23.536Z,15.8
2022-10-28T04:01:40.641Z,15.8
2022-10-28T04:02:57.745Z,15.8
2022-10-28T04:04:14.850Z,15.8
2022-10-28T04:05:31.954Z,15.8
2022-10-28T04:06:49.058Z,15.8
2022-10-28T04:08:06.163Z,15.8
2022-10-28T04:09:23.267Z,15.8
2022-10-28T04:10:39.388Z,15.8
2022-10-28T04:11:56.490Z,15.7
2022-10-28T04:13:13.594Z,15.7
2022-10-28T04:14:30.698Z,15.7
2022-10-28T04:15:47.802Z,15.6
2022-10-28T04:17:04.906Z,15.6
2022-10-28T04:18:22.010Z,15.6
2022-10-28T04:19:39.114Z,15.6
2022-10-28T04:20:56.219Z,15.5
2022-10-28T04:22:13.323Z,15.6
2022-10-28T04:23:30.428Z,15.5
2022-10-28T04:24:47.532Z,15.5
2022-10-28T04:26:04.636Z,15.5
2022-10-28T04:27:20.756Z,15.5
2022-10-28T04:28:37.861Z,15.5
2022-10-28T04:29:54.965Z,15.5
2022-10-28T04:31:12.069Z,15.5
2022-10-28T04:32:29.174Z,15.4
2022-10-28T04:33:46.278Z,15.4
2022-10-28T04:35:03.382Z,15.3
2022-10-28T04:36:20.487Z,15.3
2022-10-28T04:37:37.591Z,15.2
2022-10-28T04:38:54.696Z,15.2
2022-10-28T04:40:11.800Z,15.1
2022-10-28T04:41:28.905Z,15.1
2022-10-28T04:42:46.009Z,15
2022-10-28T04:44:02.130Z,15
2022-10-28T04:45:19.235Z,15
2022-10-28T04:46:36.339Z,15
2022-10-28T04:47:53.443Z,15
2022-10-28T04:49:10.548Z,14.9
2022-10-28T04:50:27.652Z,14.9
2022-10-28T04:51:44.756Z,14.9
2022-10-28T04:53:01.861Z,14.9
2022-10-28T04:54:18.965Z,14.9
2022-10-28T04:55:36.070Z,14.8
2022-10-28T04:56:53.174Z,14.7
2022-10-28T04:58:10.279Z,14.7
2022-10-28T04:59:27.383Z,14.8
2022-10-28T05:00:43.504Z,14.7
2022-10-28T05:02:00.608Z,14.7
2022-10-28T05:03:17.713Z,14.7
2022-10-28T05:04:34.817Z,14.7
2022-10-28T05:05:51.922Z,14.6
2022-10-28T05:07:09.026Z,14.7
2022-10-28T05:08:26.130Z,14.6
2022-10-28T05:09:43.235Z,14.6
2022-10-28T05:11:00.339Z,14.6
2022-10-28T05:12:17.443Z,14.6
2022-10-28T05:13:34.547Z,14.5
2022-10-28T05:14:51.651Z,14.5
2022-10-28T05:16:08.756Z,14.5
2022-10-28T05:17:24.876Z,14.5
2022-10-28T05:18:41.980Z,14.4
2022-10-28T05:19:59.085Z,14.5
2022-10-28T05:21:16.189Z,14.4
2022-10-28T05:22:33.293Z,14.4
2022-10-28T05:23:50.397Z,14.5
2022-10-28T05:25:07.501Z,14.5
2022-10-28T05:26:24.605Z,14.5
2022-10-28T05:27:41.710Z,14.4
2022-10-28T05:28:58.814Z,14.4
2022-10-28T05:30:15.919Z,14.4
2022-10-28T05:31:33.023Z,14.4
2022-10-28T05:32:50.127Z,14.4
2022-10-28T05:34:06.248Z,14.4
2022-10-28T05:35:23.352Z,14.4
2022-10-28T05:36:40.454Z,14.4
2022-10-28T05:37:57.558Z,14.4
2022-10-28T05:39:14.663Z,14.5
2022-10-28T05:40:31.767Z,14.5
2022-10-28T05:41:48.871Z,14.6
2022-10-28T05:43:05.975Z,14.7
2022-10-28T05:44:23.079Z,14.7
2022-10-28T05:45:40.183Z,14.7
2022-10-28T05:46:57.288Z,14.7
2022-10-28T05:48:14.392Z,14.8
2022-10-28T05:49:31.496Z,14.8
2022-10-28T05:50:47.617Z,14.8
2022-10-28T05:52:04.721Z,14.8
2022-10-28T05:53:21.825Z,14.8
2022-10-28T05:54:38.929Z,14.8
2022-10-28T05:55:56.033Z,14.8
2022-10-28T05:57:13.137Z,14.8
2022-10-28T05:58:30.241Z,14.7
2022-10-28T05:59:47.346Z,14.7
2022-10-28T06:01:04.450Z,14.7
2022-10-28T06:02:21.554Z,14.7
2022-10-28T06:03:38.658Z,14.7
2022-10-28T06:04:55.762Z,14.7
2022-10-28T06:06:12.867Z,14.7
2022-10-28T06:07:28.987Z,14.7
2022-10-28T06:08:46.091Z,14.7
2022-10-28T06:10:03.195Z,14.6
2022-10-28T06:11:20.299Z,14.7
2022-10-28T06:12:37.404Z,14.7
2022-10-28T06:13:54.508Z,14.7
2022-10-28T06:15:11.612Z,14.7
2022-10-28T06:16:28.716Z,14.7
2022-10-28T06:17:45.820Z,14.7
2022-10-28T06:19:02.924Z,14.7
2022-10-28T06:20:20.029Z,14.7
2022-10-28T06:21:37.133Z,14.7
2022-10-28T06:22:54.238Z,14.6
2022-10-28T06:24:10.358Z,14.7
2022-10-28T06:25:27.462Z,14.7
2022-10-28T06:26:44.567Z,14.7
2022-10-28T06:28:01.671Z,14.8
2022-10-28T06:29:18.775Z,14.9
2022-10-28T06:30:35.880Z,14.9
2022-10-28T06:31:52.984Z,14.9
2022-10-28T06:33:10.088Z,14.9
2022-10-28T06:34:27.192Z,14.9
2022-10-28T06:35:44.297Z,15
2022-10-28T06:37:01.401Z,15
2022-10-28T06:38:18.505Z,15
2022-10-28T06:39:35.609Z,15
2022-10-28T06:40:51.729Z,15
2022-10-28T06:42:08.834Z,15
2022-10-28T06:43:25.938Z,15.1
2022-10-28T06:44:43.042Z,15.1
2022-10-28T06:46:00.147Z,15.2
2022-10-28T06:47:17.251Z,15.3
2022-10-28T06:48:34.356Z,15.3
2022-10-28T06:49:51.460Z,15.4
2022-10-28T06:51:08.565Z,15.5
2022-10-28T06:52:25.669Z,15.4
2022-10-28T06:53:42.773Z,15.5
2022-10-28T06:54:59.878Z,15.5
2022-10-28T06:56:16.983Z,15.5
2022-10-28T06:57:33.103Z,15.5
2022-10-28T06:58:50.208Z,15.5
2022-10-28T07:00:07.312Z,15.6
2022-10-28T07:01:24.416Z,15.6
2022-10-28T07:02:41.521Z,15.7
2022-10-28T07:03:58.625Z,15.7
2022-10-28T07:05:15.730Z,15.8
2022-10-28T07:06:32.834Z,15.8
2022-10-28T07:07:49.939Z,15.8
2022-10-28T07:09:07.043Z,15.8
2022-10-28T07:10:24.147Z,15.8
2022-10-28T07:11:41.251Z,15.8
2022-10-28T07:12:58.355Z,15.8
2022-10-28T07:14:14.475Z,15.8
2022-10-28T07:15:31.579Z,15.8
2022-10-28T07:16:48.684Z,16
2022-10-28T07:18:05.788Z,16.1
2022-10-28T07:19:22.892Z,16.1
2022-10-28T07:20:39.996Z,16.1
2022-10-28T07:21:57.101Z,16.1
2022-10-28T07:23:14.205Z,16.1
2022-10-28T07:24:31.310Z,16.2
2022-10-28T07:25:48.414Z,16.2
2022-10-28T07:27:05.518Z,16.3
2022-10-28T07:28:22.622Z,16.4
2022-10-28T07:29:39.726Z,16.4
2022-10-28T07:30:55.846Z,16.6
2022-10-28T07:32:12.950Z,16.8
2022-10-28T07:33:30.054Z,17
2022-10-28T07:34:47.158Z,17.2
2022-10-28T07:36:04.262Z,17.4
2022-10-28T07:37:21.366Z,17.7
2022-10-28T07:38:38.470Z,17.8
2022-10-28T07:39:55.574Z,18
2022-10-28T07:41:12.678Z,18.2
2022-10-28T07:42:29.782Z,18.3
2022-10-28T07:43:46.887Z,18.3
2022-10-28T07:45:03.991Z,18.3
2022-10-28T07:46:21.095Z,18.4
2022-10-28T07:47:37.215Z,18.4
2022-10-28T07:48:54.319Z,18.4
2022-10-28T07:50:11.423Z,18.5
2022-10-28T07:51:28.528Z,18.5
2022-10-28T07:52:45.633Z,18.5
2022-10-28T07:54:02.737Z,18.4
2022-10-28T07:55:18.857Z,18.4
2022-10-28T07:56:35.962Z,18.5
2022-10-28T07:57:53.066Z,18.4
2022-10-28T07:59:10.170Z,18.5
2022-10-28T08:00:27.274Z,18.4
2022-10-28T08:01:44.378Z,18.4
2022-10-28T08:03:01.482Z,18.5
2022-10-28T08:04:18.587Z,18.5
2022-10-28T08:05:35.691Z,18.4
2022-10-28T08:06:52.795Z,18.5
2022-10-28T08:08:09.899Z,18.5
2022-10-28T08:09:27.003Z,18.6
2022-10-28T08:10:44.107Z,18.7
2022-10-28T08:12:00.228Z,18.7
2022-10-28T08:13:17.332Z,18.8
2022-10-28T08:14:34.436Z,18.9
2022-10-28T08:15:51.540Z,18.9
2022-10-28T08:17:08.644Z,19
2022-10-28T08:18:25.748Z,19.1
2022-10-28T08:19:42.852Z,19.1
2022-10-28T08:20:59.956Z,19.1
2022-10-28T08:22:17.060Z,19.2
2022-10-28T08:23:34.164Z,19.2
2022-10-28T08:24:51.268Z,19.2
2022-10-28T08:26:08.372Z,19.4
2022-10-28T08:27:25.476Z,19.5
2022-10-28T08:28:41.596Z,19.6
2022-10-28T08:29:58.700Z,19.8
2022-10-28T08:31:15.804Z,19.9
2022-10-28T08:32:32.908Z,19.9
2022-10-28T08:33:50.012Z,20.1
2022-10-28T08:35:07.116Z,20
2022-10-28T08:36:24.220Z,20
2022-10-28T08:37:41.324Z,20.2
2022-10-28T08:38:58.429Z,20.3
2022-10-28T08:40:15.533Z,20.3
2022-10-28T08:41:32.637Z,20.5
2022-10-28T08:42:49.741Z,20.5
2022-10-28T08:44:06.845Z,20.5
2022-10-28T08:45:22.966Z,20.5
2022-10-28T08:46:40.070Z,20.6
2022-10-28T08:47:57.174Z,20.6
2022-10-28T08:49:14.278Z,20.6
2022-10-28T08:50:31.382Z,20.6
2022-10-28T08:51:48.486Z,20.7
2022-10-28T08:53:05.590Z,20.8
2022-10-28T08:54:22.693Z,20.9
2022-10-28T08:55:39.797Z,21
2022-10-28T08:56:56.901Z,21.1
2022-10-28T08:58:14.005Z,21.1
2022-10-28T08:59:31.109Z,21
2022-10-28T09:00:48.213Z,21
2022-10-28T09:02:04.333Z,21.1
2022-10-28T09:03:21.437Z,20.9
2022-10-28T09:04:38.541Z,20.9
2022-10-28T09:05:55.645Z,21
2022-10-28T09:07:12.749Z,20.9
2022-10-28T09:08:29.853Z,20.8
2022-10-28T09:09:46.957Z,20.7
2022-10-28T09:11:04.061Z,20.7
2022-10-28T09:12:21.166Z,20.6
2022-10-28T09:13:38.270Z,20.7
2022-10-28T09:14:55.374Z,20.7
2022-10-28T09:16:12.478Z,20.8
2022-10-28T09:17:29.582Z,20.8
2022-10-28T09:18:45.702Z,21
2022-10-28T09:20:02.806Z,21
2022-10-28T09:21:19.910Z,21.1
2022-10-28T09:22:37.014Z,21.2
2022-10-28T09:23:54.118Z,21.4
2022-10-28T09:25:11.222Z,21.3
2022-10-28T09:26:28.326Z,21.3
2022-10-28T09:27:45.430Z,21.3
2022-10-28T09:29:02.535Z,21.3
2022-10-28T09:30:19.639Z,21.4
2022-10-28T09:31:36.743Z,21.4
2022-10-28T09:32:53.847Z,21.6
2022-10-28T09:34:10.951Z,21.7
2022-10-28T09:35:27.071Z,21.9
2022-10-28T09:36:44.175Z,22
2022-10-28T09:38:01.279Z,22.1
2022-10-28T09:39:18.383Z,22
2022-10-28T09:40:35.487Z,22.1
2022-10-28T09:41:52.590Z,22.2
2022-10-28T09:43:09.694Z,22.3
2022-10-28T09:44:26.798Z,22.5
2022-10-28T09:45:43.902Z,22.5
2022-10-28T09:47:01.006Z,22.6
2022-10-28T09:48:18.109Z,22.6
2022-10-28T09:49:35.213Z,22.7
2022-10-28T09:50:52.317Z,22.8
2022-10-28T09:52:08.437Z,22.7
2022-10-28T09:53:25.541Z,22.8
2022-10-28T09:54:42.645Z,22.9
2022-10-28T09:55:59.749Z,22.9
2022-10-28T09:57:16.853Z,22.9
2022-10-28T09:58:33.957Z,23
2022-10-28T09:59:51.061Z,22.9
2022-10-28T10:01:08.165Z,22.9
2022-10-28T10:02:25.269Z,22.8
2022-10-28T10:03:42.373Z,22.9
2022-10-28T10:04:59.477Z,22.8
2022-10-28T10:06:16.581Z,22.9
2022-10-28T10:07:33.685Z,22.9
2022-10-28T10:08:49.805Z,23
2022-10-28T10:10:06.909Z,23
2022-10-28T10:11:24.013Z,23
2022-10-28T10:12:41.117Z,23.1
2022-10-28T10:13:58.221Z,23.1
2022-10-28T10:15:15.325Z,23.2
2022-10-28T10:16:32.429Z,23.2
2022-10-28T10:17:49.533Z,23.2
2022-10-28T10:19:06.638Z,23.2
2022-10-28T10:20:23.742Z,23.3
2022-10-28T10:21:40.846Z,23.3
2022-10-28T10:22:57.950Z,23.2
2022-10-28T10:24:15.053Z,23.2
2022-10-28T10:25:31.174Z,23.3
2022-10-28T10:26:48.278Z,23.4
2022-10-28T10:28:05.382Z,23.4
2022-10-28T10:29:22.486Z,23.4
2022-10-28T10:30:39.590Z,23.4
2022-10-28T10:31:56.694Z,23.5
2022-10-28T10:33:13.798Z,23.5
2022-10-28T10:34:30.902Z,23.5
2022-10-28T10:35:48.006Z,23.5
2022-10-28T10:37:05.110Z,23.5
2022-10-28T10:38:22.214Z,23.5
2022-10-28T10:39:39.319Z,23.5
2022-10-28T10:40:56.422Z,23.6
2022-10-28T10:42:12.543Z,23.6
2022-10-28T10:43:29.647Z,23.6
2022-10-28T10:44:46.750Z,23.5
2022-10-28T10:46:03.854Z,23.5
2022-10-28T10:47:20.958Z,23.4
2022-10-28T10:48:38.062Z,23.6
2022-10-28T10:49:55.166Z,23.7
2022-10-28T10:51:12.271Z,23.8
2022-10-28T10:52:29.374Z,23.9
2022-10-28T10:53:46.478Z,24
2022-10-28T10:55:03.582Z,24
2022-10-28T10:56:20.686Z,24.1
2022-10-28T10:57:37.790Z,24.2
2022-10-28T10:58:53.910Z,24.2
2022-10-28T11:00:11.014Z,24.2
2022-10-28T11:01:28.118Z,24.2
2022-10-28T11:02:45.223Z,24.1
2022-10-28T11:04:02.327Z,24.2
2022-10-28T11:05:19.431Z,24.3
2022-10-28T11:06:36.535Z,24.3
2022-10-28T11:07:53.639Z,24.3
2022-10-28T11:09:10.743Z,24.4
2022-10-28T11:10:27.847Z,24.5
2022-10-28T11:11:44.951Z,24.6
2022-10-28T11:13:02.055Z,24.6
2022-10-28T11:14:19.160Z,24.6
2022-10-28T11:15:35.280Z,24.7
2022-10-28T11:16:52.384Z,24.7
2022-10-28T11:18:09.488Z,24.7
2022-10-28T11:19:26.592Z,24.7
2022-10-28T11:20:43.696Z,24.8
2022-10-28T11:22:00.801Z,24.7
2022-10-28T11:23:17.905Z,24.8
2022-10-28T11:24:35.009Z,24.8
2022-10-28T11:25:52.113Z,24.8
2022-10-28T11:27:09.217Z,24.8
2022-10-28T11:28:26.321Z,24.8
2022-10-28T11:29:43.425Z,24.8
2022-10-28T11:31:00.529Z,24.9
2022-10-28T11:32:16.650Z,24.9
2022-10-28T11:33:33.754Z,25
2022-10-28T11:34:50.858Z,25
2022-10-28T11:36:07.962Z,25
2022-10-28T11:37:25.066Z,25
2022-10-28T11:38:42.170Z,25.1
2022-10-28T11:39:59.274Z,25.1
2022-10-28T11:41:16.378Z,25
2022-10-28T11:42:33.482Z,25.1
2022-10-28T11:43:50.586Z,25
2022-10-28T11:45:07.690Z,25.1
2022-10-28T11:46:24.795Z,25.1
2022-10-28T11:47:41.899Z,25
2022-10-28T11:48:58.019Z,25
2022-10-28T11:50:15.123Z,25
2022-10-28T11:51:32.227Z,25
2022-10-28T11:52:49.331Z,25.1
2022-10-28T11:54:06.435Z,25.1
2022-10-28T11:55:23.539Z,25.1
2022-10-28T11:56:40.644Z,25.2
2022-10-28T11:57:57.748Z,25.2
2022-10-28T11:59:14.852Z,25.2
2022-10-28T12:00:31.956Z,25.3
2022-10-28T12:01:49.060Z,25.3
2022-10-28T12:03:06.164Z,25.4
2022-10-28T12:04:23.268Z,25.5
2022-10-28T12:05:39.389Z,25.5
2022-10-28T12:06:56.493Z,25.5
2022-10-28T12:08:13.597Z,25.5
2022-10-28T12:09:30.701Z,25.5
2022-10-28T12:10:47.805Z,25.5
2022-10-28T12:12:04.909Z,25.5
2022-10-28T12:13:21.030Z,25.6
2022-10-28T12:14:38.134Z,25.6
2022-10-28T12:15:55.238Z,25.7
2022-10-28T12:17:12.342Z,25.6
2022-10-28T12:18:29.446Z,25.6
2022-10-28T12:19:46.550Z,25.6
2022-10-28T12:21:03.655Z,25.7
2022-10-28T12:22:20.759Z,25.7
2022-10-28T12:23:37.863Z,25.7
2022-10-28T12:24:54.967Z,25.8
2022-10-28T12:26:12.071Z,25.8
2022-10-28T12:27:29.174Z,25.7
2022-10-28T12:28:46.278Z,25.8
2022-10-28T12:30:02.398Z,25.7
2022-10-28T12:31:19.502Z,25.7
2022-10-28T12:32:36.607Z,25.8
2022-10-28T12:33:53.711Z,25.8
2022-10-28T12:35:10.814Z,25.8
2022-10-28T12:36:27.919Z,25.8
2022-10-28T12:37:45.023Z,25.8
2022-10-28T12:39:02.127Z,25.7
2022-10-28T12:40:19.231Z,25.7
2022-10-28T12:41:36.335Z,25.7
2022-10-28T12:42:53.439Z,25.7
2022-10-28T12:44:10.543Z,25.8
2022-10-28T12:45:27.647Z,25.7
2022-10-28T12:46:43.767Z,25.7
2022-10-28T12:48:00.871Z,25.7
2022-10-28T12:49:17.976Z,25.7
2022-10-28T12:50:35.080Z,25.7
2022-10-28T12:51:52.184Z,25.8
2022-10-28T12:53:09.288Z,25.9
2022-10-28T12:54:26.392Z,25.8
2022-10-28T12:55:43.496Z,25.9
2022-10-28T12:57:00.600Z,25.9
2022-10-28T12:58:17.705Z,25.9
2022-10-28T12:59:34.809Z,25.9
2022-10-28T13:00:51.913Z,25.9
2022-10-28T13:02:09.017Z,25.9
2022-10-28T13:03:25.137Z,25.9
2022-10-28T13:04:42.241Z,25.9
2022-10-28T13:05:59.345Z,25.9
2022-10-28T13:07:16.450Z,25.9
2022-10-28T13:08:33.554Z,25.9
2022-10-28T13:09:50.658Z,25.9
2022-10-28T13:11:07.762Z,25.8
2022-10-28T13:12:24.866Z,25.8
2022-10-28T13:13:41.970Z,25.8
2022-10-28T13:14:59.075Z,25.7
2022-10-28T13:16:16.179Z,25.7
2022-10-28T13:17:33.283Z,25.7
2022-10-28T13:18:50.387Z,25.6
2022-10-28T13:20:06.507Z,25.5
2022-10-28T13:21:23.609Z,25.5
2022-10-28T13:22:40.713Z,25.5
2022-10-28T13:23:57.817Z,25.4
2022-10-28T13:25:14.919Z,25.4
2022-10-28T13:26:32.023Z,25.4
2022-10-28T13:27:49.127Z,25.4
2022-10-28T13:29:06.232Z,25.3
2022-10-28T13:30:23.336Z,25.3
2022-10-28T13:31:40.440Z,25.2
2022-10-28T13:32:57.544Z,25.2
2022-10-28T13:34:14.647Z,25.2
2022-10-28T13:35:31.752Z,25.2
2022-10-28T13:36:47.872Z,25.2
2022-10-28T13:38:04.976Z,25.1
2022-10-28T13:39:22.080Z,25
2022-10-28T13:40:39.184Z,25
2022-10-28T13:41:56.288Z,25
2022-10-28T13:43:13.392Z,25.1
2022-10-28T13:44:30.496Z,25.1
2022-10-28T13:45:47.600Z,25.1
2022-10-28T13:47:04.705Z,25.1
2022-10-28T13:48:21.809Z,25.1
2022-10-28T13:49:38.913Z,25.1
2022-10-28T13:50:56.017Z,25.1
2022-10-28T13:52:13.121Z,25.1
2022-10-28T13:53:29.241Z,25.1
2022-10-28T13:54:46.345Z,25.1
2022-10-28T13:56:03.449Z,25.1
2022-10-28T13:57:20.553Z,25.1
2022-10-28T13:58:37.657Z,25
2022-10-28T13:59:54.762Z,24.9
2022-10-28T14:01:11.866Z,25
2022-10-28T14:02:28.970Z,25
2022-10-28T14:03:46.074Z,24.9
2022-10-28T14:05:03.178Z,24.8
2022-10-28T14:06:20.282Z,24.7
2022-10-28T14:07:37.386Z,24.7
2022-10-28T14:08:54.490Z,24.7
2022-10-28T14:10:10.610Z,24.6
2022-10-28T14:11:27.714Z,24.6
2022-10-28T14:12:44.818Z,24.7
2022-10-28T14:14:01.922Z,24.6
2022-10-28T14:15:19.026Z,24.6
2022-10-28T14:16:36.131Z,24.6
2022-10-28T14:17:53.235Z,24.6
2022-10-28T14:19:10.339Z,24.6
2022-10-28T14:20:27.443Z,24.6
2022-10-28T14:21:44.547Z,24.5
2022-10-28T14:23:01.651Z,24.5
2022-10-28T14:24:18.755Z,24.4
2022-10-28T14:25:35.859Z,24.4
2022-10-28T14:26:51.980Z,24.4
2022-10-28T14:28:09.084Z,24.3
2022-10-28T14:29:26.188Z,24.3
2022-10-28T14:30:43.292Z,24.3
2022-10-28T14:32:00.396Z,24.3
2022-10-28T14:33:17.500Z,24.3
2022-10-28T14:34:34.605Z,24.2
2022-10-28T14:35:51.709Z,24.2
2022-10-28T14:37:08.813Z,24.2
2022-10-28T14:38:25.917Z,24.1
2022-10-28T14:39:43.021Z,24
2022-10-28T14:41:00.125Z,24
2022-10-28T14:42:17.229Z,23.9
2022-10-28T14:43:33.349Z,23.9
2022-10-28T14:44:50.453Z,23.9
2022-10-28T14:46:07.557Z,23.9
2022-10-28T14:47:24.661Z,23.9
2022-10-28T14:48:41.765Z,23.8
2022-10-28T14:49:58.869Z,23.8
2022-10-28T14:51:15.973Z,23.9
2022-10-28T14:52:33.077Z,23.8
2022-10-28T14:53:50.181Z,23.8
2022-10-28T14:55:07.285Z,23.8
2022-10-28T14:56:24.389Z,23.7
2022-10-28T14:57:41.493Z,23.7
2022-10-28T14:58:58.597Z,23.6
2022-10-28T15:00:14.717Z,23.6
2022-10-28T15:01:31.822Z,23.6
2022-10-28T15:02:48.926Z,23.6
2022-10-28T15:04:06.030Z,23.5
2022-10-28T15:05:23.133Z,23.5
2022-10-28T15:06:40.237Z,23.4
2022-10-28T15:07:57.341Z,23.4
2022-10-28T15:09:14.445Z,23.3
2022-10-28T15:10:31.549Z,23.3
2022-10-28T15:11:48.653Z,23.3
2022-10-28T15:13:05.756Z,23.3
2022-10-28T15:14:22.860Z,23.3
2022-10-28T15:15:39.964Z,23.2
2022-10-28T15:16:56.084Z,23.1
2022-10-28T15:18:13.188Z,23.1
2022-10-28T15:19:30.292Z,23.1
2022-10-28T15:20:47.396Z,23
2022-10-28T15:22:04.500Z,23
2022-10-28T15:23:21.603Z,23
2022-10-28T15:24:38.707Z,23
2022-10-28T15:25:55.811Z,22.9
2022-10-28T15:27:12.915Z,22.9
2022-10-28T15:28:30.019Z,22.9
2022-10-28T15:29:47.123Z,22.8
2022-10-28T15:31:04.226Z,22.8
2022-10-28T15:32:21.330Z,22.8
2022-10-28T15:33:37.450Z,22.7
2022-10-28T15:34:54.554Z,22.7
2022-10-28T15:36:11.658Z,22.6
2022-10-28T15:37:28.761Z,22.6
2022-10-28T15:38:45.865Z,22.6
2022-10-28T15:40:02.969Z,22.5
2022-10-28T15:41:20.073Z,22.5
2022-10-28T15:42:37.175Z,22.4
2022-10-28T15:43:54.279Z,22.4
2022-10-28T15:45:11.383Z,22.3
2022-10-28T15:46:28.487Z,22.2
2022-10-28T15:47:45.590Z,22.2
2022-10-28T15:49:02.694Z,22.2
2022-10-28T15:50:18.815Z,22.1
2022-10-28T15:51:35.918Z,22.1
2022-10-28T15:52:53.023Z,22
2022-10-28T15:54:10.127Z,21.9
2022-10-28T15:55:27.231Z,21.9
2022-10-28T15:56:44.335Z,21.8
2022-10-28T15:58:01.439Z,21.7
2022-10-28T15:59:18.544Z,21.7
2022-10-28T16:00:35.648Z,21.6
2022-10-28T16:01:52.752Z,21.6
2022-10-28T16:03:09.856Z,21.5
2022-10-28T16:04:26.960Z,21.4
2022-10-28T16:05:44.064Z,21.4
2022-10-28T16:07:00.184Z,21.4
2022-10-28T16:08:17.288Z,21.3
2022-10-28T16:09:34.392Z,21.2
2022-10-28T16:10:51.497Z,21.2
2022-10-28T16:12:08.601Z,21.1
2022-10-28T16:13:25.705Z,21.2
2022-10-28T16:14:42.809Z,21.1
2022-10-28T16:15:59.913Z,21.1
2022-10-28T16:17:17.017Z,21
2022-10-28T16:18:34.121Z,21
2022-10-28T16:19:51.225Z,21
2022-10-28T16:21:08.329Z,20.9
2022-10-28T16:22:25.432Z,20.8
2022-10-28T16:23:41.553Z,20.8
2022-10-28T16:24:58.657Z,20.7
2022-10-28T16:26:15.761Z,20.7
2022-10-28T16:27:32.865Z,20.6
2022-10-28T16:28:49.969Z,20.6
2022-10-28T16:30:07.073Z,20.5
2022-10-28T16:31:23.193Z,20.4
2022-10-28T16:32:40.297Z,20.4
2022-10-28T16:33:57.401Z,20.4
2022-10-28T16:35:14.504Z,20.4
2022-10-28T16:36:31.608Z,20.4
2022-10-28T16:37:48.712Z,20.4
2022-10-28T16:39:05.816Z,20.4
2022-10-28T16:40:22.920Z,20.3
2022-10-28T16:41:40.022Z,20.3
2022-10-28T16:42:57.126Z,20.3
2022-10-28T16:44:14.230Z,20.3
2022-10-28T16:45:31.334Z,20.3
2022-10-28T16:46:48.438Z,20.3
2022-10-28T16:48:04.558Z,20.2
2022-10-28T16:49:21.662Z,20.2
2022-10-28T16:50:38.766Z,20.2
2022-10-28T16:51:55.870Z,20.2
2022-10-28T16:53:12.974Z,20.2
2022-10-28T16:54:30.078Z,20.1
2022-10-28T16:55:47.182Z,20.1
2022-10-28T16:57:04.286Z,20.1
2022-10-28T16:58:21.389Z,20.1
2022-10-28T16:59:38.494Z,20.1
2022-10-28T17:00:55.598Z,20
2022-10-28T17:02:12.702Z,20
2022-10-28T17:03:29.806Z,20
2022-10-28T17:04:45.926Z,19.9
2022-10-28T17:06:03.030Z,19.9
2022-10-28T17:07:20.134Z,19.9
2022-10-28T17:08:37.237Z,19.9
2022-10-28T17:09:54.341Z,19.9